Time;durP1;ratioP1;P1;durP2;ratioP2;P2;SDS_P1;SDS_P2;PMS_P1;PMS_P2;Temp;Humidity;BMP_temperature;BMP_pressure;BME280_temperature;BME280_humidity;BME280_pressure;Samples;Min_cycle;Max_cycle;Signal;HPM_P1;HPM_P2
2022/05/10 00:01:46;;;;;;;19.77;9.45;;;10.00;5.20;;;;;;5013297;28;20077;-26
2022/05/10 00:04:12;;;;;;;18.48;8.20;;;10.20;1.00;;;;;;5019848;28;20130;-25
2022/05/10 00:06:41;;;;;;;23.83;9.23;;;10.30;1.00;;;;;;5012565;28;20482;-26
2022/05/10 00:09:09;;;;;;;20.48;10.85;;;10.40;1.00;;;;;;5013663;28;20081;-26
2022/05/10 00:11:35;;;;;;;18.70;9.98;;;10.50;1.00;;;;;;5022394;28;20049;-27
2022/05/10 00:14:01;;;;;;;19.48;10.18;;;10.60;1.00;;;;;;5031804;28;20408;-26
2022/05/10 00:16:27;;;;;;;21.30;9.40;;;10.70;1.00;;;;;;5035308;28;20136;-26
2022/05/10 00:18:53;;;;;;;18.30;9.80;;;10.80;1.00;;;;;;5017522;28;20119;-26
2022/05/10 00:21:23;;;;;;;14.13;8.38;;;10.70;1.00;;;;;;5016412;28;20053;-26
2022/05/10 00:23:50;;;;;;;19.75;8.50;;;10.80;1.00;;;;;;5017772;28;20048;-26
2022/05/10 00:26:16;;;;;;;15.68;8.30;;;10.80;1.00;;;;;;5015008;28;20088;-26
2022/05/10 00:28:42;;;;;;;17.92;8.80;;;10.80;1.00;;;;;;5015438;28;20057;-26
2022/05/10 00:31:10;;;;;;;18.98;8.50;;;10.80;1.00;;;;;;5015498;28;20053;-25
2022/05/10 00:33:37;;;;;;;15.80;8.00;;;10.90;1.00;;;;;;5015970;28;20042;-26
2022/05/10 00:36:04;;;;;;;21.55;10.15;;;10.60;1.00;;;;;;5015668;28;20045;-26
2022/05/10 00:38:35;;;;;;;20.65;8.80;;;10.60;1.00;;;;;;5016136;28;20370;-26
2022/05/10 00:41:23;;;;;;;18.17;8.70;;;10.60;1.00;;;;;;5015763;28;20050;-26
2022/05/10 00:43:58;;;;;;;25.10;8.30;;;10.50;1.00;;;;;;5024526;28;20104;-26
2022/05/10 00:46:34;;;;;;;17.00;8.52;;;10.50;1.00;;;;;;5026938;28;20038;-26
2022/05/10 00:49:21;;;;;;;17.50;8.68;;;10.60;1.00;;;;;;5017203;28;20069;-25
2022/05/10 00:52:26;;;;;;;24.92;10.32;;;10.50;1.00;;;;;;5025023;28;20493;-26
2022/05/10 00:54:57;;;;;;;17.42;8.90;;;10.50;1.00;;;;;;5016729;28;20045;-26
2022/05/10 00:57:55;;;;;;;16.52;8.70;;;10.30;1.00;;;;;;5019517;28;20038;-27
2022/05/10 01:00:24;;;;;;;25.83;9.68;;;10.20;1.00;;;;;;5015122;28;20140;-26
2022/05/10 01:03:26;;;;;;;17.25;9.43;;;10.30;1.00;;;;;;5013474;28;20042;-26
2022/05/10 01:06:18;;;;;;;20.02;10.27;;;10.10;1.00;;;;;;5020223;28;20041;-26
2022/05/10 01:09:06;;;;;;;18.58;9.30;;;10.00;1.00;;;;;;5016733;28;20038;-27
2022/05/10 01:12:04;;;;;;;14.52;8.82;;;10.10;1.00;;;;;;5015360;28;20136;-26
2022/05/10 01:14:36;;;;;;;17.42;10.10;;;10.10;1.00;;;;;;5003006;28;20143;-26
2022/05/10 01:17:02;;;;;;;17.10;8.90;;;10.20;1.00;;;;;;5015261;28;20167;-26
2022/05/10 01:19:28;;;;;;;21.38;9.55;;;10.10;1.00;;;;;;5013949;28;20611;-27
2022/05/10 01:22:30;;;;;;;15.65;8.77;;;10.40;1.00;;;;;;5013859;28;20121;-26
2022/05/10 01:25:14;;;;;;;18.05;9.27;;;10.30;1.00;;;;;;5014063;28;20547;-26
2022/05/10 01:27:49;;;;;;;20.52;9.32;;;10.40;1.00;;;;;;5032775;28;20056;-26
2022/05/10 01:30:28;;;;;;;16.90;9.30;;;10.50;1.00;;;;;;5015924;28;20481;-26
2022/05/10 01:36:08;;;;;;;13.32;8.75;;;10.60;1.00;;;;;;5033185;28;20045;-26
2022/05/10 01:38:56;;;;;;;14.65;8.98;;;10.70;1.00;;;;;;5021038;28;20561;-27
2022/05/10 01:41:52;;;;;;;22.15;9.50;;;10.70;1.00;;;;;;5021329;28;20037;-26
2022/05/10 01:44:34;;;;;;;18.90;9.50;;;10.70;1.00;;;;;;5030625;28;20061;-26
2022/05/10 01:47:09;;;;;;;17.25;8.98;;;10.70;1.00;;;;;;5015524;28;20052;-26
2022/05/10 01:49:37;;;;;;;19.10;8.57;;;10.80;1.00;;;;;;5021445;28;20049;-26
2022/05/10 01:52:14;;;;;;;16.13;8.75;;;11.10;1.00;;;;;;5023240;28;20405;-26
2022/05/10 01:54:40;;;;;;;16.13;8.70;;;10.90;1.00;;;;;;5011163;28;20051;-27
2022/05/10 01:57:12;;;;;;;17.98;8.57;;;10.90;1.00;;;;;;5013453;28;20053;-26
2022/05/10 01:59:42;;;;;;;20.35;9.38;;;11.00;1.00;;;;;;5026030;28;20077;-26
2022/05/10 02:02:10;;;;;;;20.90;9.80;;;10.80;1.00;;;;;;5013988;28;20061;-26
2022/05/10 02:04:40;;;;;;;19.45;9.93;;;10.80;1.00;;;;;;5017084;28;20458;-26
2022/05/10 02:07:13;;;;;;;18.40;9.32;;;10.70;1.00;;;;;;5034271;28;20509;-26
2022/05/10 02:09:56;;;;;;;18.20;9.82;;;10.40;1.00;;;;;;5017463;28;20053;-26
2022/05/10 02:12:31;;;;;;;17.58;9.63;;;10.30;1.00;;;;;;5034124;28;20058;-26
2022/05/10 02:15:06;;;;;;;18.90;9.95;;;10.10;1.00;;;;;;5022786;28;20045;-27
2022/05/10 02:17:54;;;;;;;16.58;9.35;;;10.00;1.00;;;;;;5015411;28;20054;-26
2022/05/10 02:20:32;;;;;;;16.60;10.50;;;10.10;29.60;;;;;;5015138;28;20045;-26
2022/05/10 02:23:10;;;;;;;16.60;9.20;;;10.00;53.70;;;;;;5014483;28;20046;-26
2022/05/10 02:25:51;;;;;;;16.45;8.80;;;9.90;72.60;;;;;;5015314;28;20049;-26
2022/05/10 02:28:37;;;;;;;14.93;8.38;;;10.00;77.50;;;;;;5014071;28;20045;-26
2022/05/10 02:31:13;;;;;;;20.20;8.95;;;10.30;66.70;;;;;;5014169;28;20092;-26
2022/05/10 02:33:40;;;;;;;14.13;8.77;;;10.20;38.60;;;;;;5017951;28;20120;-26
2022/05/10 02:36:05;;;;;;;17.90;9.13;;;10.10;11.70;;;;;;5012176;28;20042;-27
2022/05/10 02:38:35;;;;;;;12.10;8.00;;;10.10;2.60;;;;;;5027656;28;20049;-26
2022/05/10 02:41:06;;;;;;;14.55;7.85;;;10.10;1.00;;;;;;5023624;28;20562;-27
2022/05/10 02:43:40;;;;;;;14.38;7.88;;;10.20;1.00;;;;;;5029159;28;20090;-26
2022/05/10 02:46:06;;;;;;;18.27;9.30;;;10.30;1.00;;;;;;5014087;28;20160;-26
2022/05/10 02:48:36;;;;;;;16.90;8.10;;;10.30;1.00;;;;;;5013919;28;20555;-28
2022/05/10 02:51:03;;;;;;;19.65;8.43;;;10.30;1.00;;;;;;5015374;28;20419;-26
2022/05/10 02:53:29;;;;;;;19.58;8.23;;;10.40;1.00;;;;;;5027504;28;20374;-26
2022/05/10 02:56:01;;;;;;;21.63;8.27;;;10.40;1.00;;;;;;5013906;28;20049;-26
2022/05/10 02:58:44;;;;;;;17.45;7.97;;;10.50;1.00;;;;;;5013361;28;20064;-26
2022/05/10 03:01:37;;;;;;;16.13;7.13;;;10.50;1.00;;;;;;5027975;28;20057;-27
2022/05/10 03:04:07;;;;;;;17.58;7.35;;;10.50;1.00;;;;;;5015290;28;20050;-27
2022/05/10 03:06:33;;;;;;;17.23;7.75;;;10.70;1.00;;;;;;5017851;28;20060;-27
2022/05/10 03:09:00;;;;;;;16.33;8.00;;;10.60;1.00;;;;;;5013514;28;20053;-27
2022/05/10 03:11:27;;;;;;;18.58;8.07;;;10.60;1.00;;;;;;5013049;28;20072;-26
2022/05/10 03:13:53;;;;;;;16.52;7.93;;;10.60;1.00;;;;;;5013485;28;20065;-27
2022/05/10 03:16:19;;;;;;;22.35;9.07;;;10.90;1.00;;;;;;5013045;28;20124;-26
2022/05/10 03:18:45;;;;;;;14.02;7.35;;;10.80;1.00;;;;;;5012701;28;20532;-26
2022/05/10 03:21:12;;;;;;;17.15;7.35;;;10.90;1.00;;;;;;5028996;28;20053;-26
2022/05/10 03:23:38;;;;;;;21.67;8.05;;;10.80;1.00;;;;;;5011942;28;20078;-27
2022/05/10 03:26:04;;;;;;;18.15;7.57;;;10.90;1.00;;;;;;5012221;28;20096;-27
2022/05/10 03:28:29;;;;;;;18.42;8.45;;;10.80;1.00;;;;;;5023703;28;20473;-27
2022/05/10 03:30:55;;;;;;;13.82;6.82;;;10.80;1.00;;;;;;5032494;28;20077;-27
2022/05/10 03:33:22;;;;;;;18.08;8.35;;;10.80;1.00;;;;;;5017479;28;20041;-26
2022/05/10 03:35:47;;;;;;;14.45;7.90;;;10.90;1.00;;;;;;5024308;28;20079;-26
2022/05/10 03:38:13;;;;;;;23.60;8.45;;;11.00;1.00;;;;;;5022982;28;20041;-26
2022/05/10 03:40:39;;;;;;;17.35;7.85;;;11.00;99.90;;;;;;5012598;28;20096;-28
2022/05/10 03:43:08;;;;;;;10.90;7.10;;;11.30;99.90;;;;;;5016943;28;20073;-26
2022/05/10 03:45:34;;;;;;;17.48;8.32;;;10.90;99.90;;;;;;5020284;28;20053;-26
2022/05/10 03:48:00;;;;;;;16.27;8.23;;;11.10;99.90;;;;;;5037178;28;20485;-26
2022/05/10 03:50:26;;;;;;;13.38;7.70;;;11.00;99.90;;;;;;5026816;28;20045;-26
2022/05/10 03:52:52;;;;;;;14.32;8.05;;;11.00;99.90;;;;;;5019344;28;20053;-27
2022/05/10 03:55:22;;;;;;;14.10;8.70;;;11.10;99.90;;;;;;5012907;28;20038;-26
2022/05/10 03:57:49;;;;;;;12.93;8.27;;;11.10;99.90;;;;;;5015368;28;20045;-29
2022/05/10 04:00:19;;;;;;;13.35;8.07;;;11.10;99.90;;;;;;5016088;28;20041;-27
2022/05/10 04:02:45;;;;;;;15.00;7.82;;;11.10;99.90;;;;;;5023315;28;20073;-27
2022/05/10 04:05:13;;;;;;;17.58;9.00;;;11.10;99.90;;;;;;5015968;28;20523;-27
2022/05/10 04:07:39;;;;;;;16.75;8.93;;;11.10;99.90;;;;;;5017055;28;20052;-27
2022/05/10 04:10:06;;;;;;;15.88;8.48;;;11.20;99.90;;;;;;5015546;28;20033;-27
2022/05/10 04:12:32;;;;;;;17.75;9.20;;;11.20;99.90;;;;;;5002883;28;20128;-27
2022/05/10 04:14:58;;;;;;;21.33;9.45;;;11.20;99.90;;;;;;5017130;28;20049;-27
2022/05/10 04:17:23;;;;;;;14.82;9.55;;;11.30;1.00;;;;;;5016372;28;20049;-27
2022/05/10 04:19:49;;;;;;;17.38;9.52;;;11.40;1.00;;;;;;5024045;28;20508;-26
2022/05/10 04:22:16;;;;;;;17.15;10.52;;;11.40;1.00;;;;;;5034119;28;20049;-27
2022/05/10 04:24:42;;;;;;;19.85;9.50;;;11.50;1.00;;;;;;5029263;28;20054;-26
2022/05/10 04:27:08;;;;;;;16.38;8.95;;;11.70;99.90;;;;;;5002224;28;20056;-26
2022/05/10 04:29:33;;;;;;;15.70;8.80;;;11.70;99.90;;;;;;5016432;28;20504;-27
2022/05/10 04:31:59;;;;;;;16.05;8.93;;;11.60;99.90;;;;;;5014856;28;20042;-27
2022/05/10 04:34:25;;;;;;;17.48;8.93;;;11.70;99.90;;;;;;5019444;28;20046;-26
2022/05/10 04:36:51;;;;;;;13.20;8.95;;;11.80;99.90;;;;;;5026168;28;20045;-27
2022/05/10 04:39:17;;;;;;;14.48;9.30;;;11.90;99.90;;;;;;5018332;28;20057;-27
2022/05/10 04:41:52;;;;;;;16.85;9.25;;;11.90;99.90;;;;;;5014824;28;20080;-26
2022/05/10 04:44:17;;;;;;;20.15;8.95;;;11.90;99.90;;;;;;5019734;28;20044;-26
2022/05/10 04:46:43;;;;;;;20.40;10.02;;;12.00;99.90;;;;;;5009845;28;20050;-26
2022/05/10 04:49:12;;;;;;;18.85;9.75;;;12.20;99.90;;;;;;5027709;28;20485;-27
2022/05/10 04:51:39;;;;;;;14.77;9.13;;;12.10;99.90;;;;;;4999852;28;20406;-27
2022/05/10 04:54:06;;;;;;;12.38;9.40;;;12.30;99.90;;;;;;5014378;28;20103;-26
2022/05/10 04:56:32;;;;;;;17.65;9.88;;;12.30;99.90;;;;;;5015638;28;20042;-27
2022/05/10 04:58:58;;;;;;;16.55;9.80;;;12.50;99.90;;;;;;5015548;28;20045;-27
2022/05/10 05:01:26;;;;;;;19.40;9.32;;;12.50;99.90;;;;;;5018319;28;20045;-27
2022/05/10 05:03:56;;;;;;;17.23;9.80;;;12.60;99.90;;;;;;5019187;28;20052;-26
2022/05/10 05:06:24;;;;;;;20.45;10.18;;;12.70;99.90;;;;;;5025056;28;20054;-27
2022/05/10 05:08:50;;;;;;;17.30;10.65;;;12.70;99.90;;;;;;5023726;28;20054;-27
2022/05/10 05:11:16;;;;;;;17.95;10.43;;;12.80;99.90;;;;;;5020499;28;20497;-27
2022/05/10 05:13:43;;;;;;;16.88;9.90;;;12.90;99.90;;;;;;5024482;28;20052;-26
2022/05/10 05:16:09;;;;;;;19.10;10.48;;;12.90;99.90;;;;;;5018567;28;20054;-27
2022/05/10 05:18:36;;;;;;;17.15;9.88;;;13.00;99.90;;;;;;5025519;28;20065;-26
2022/05/10 05:21:02;;;;;;;19.98;10.55;;;13.10;99.90;;;;;;5022151;28;20504;-26
2022/05/10 05:23:28;;;;;;;21.35;9.95;;;13.30;99.90;;;;;;5019413;28;20053;-26
2022/05/10 05:25:55;;;;;;;19.63;10.45;;;13.50;99.90;;;;;;5017144;28;20044;-26
2022/05/10 05:28:21;;;;;;;15.43;9.75;;;13.40;99.90;;;;;;5016212;28;20057;-26
2022/05/10 05:30:48;;;;;;;15.85;10.02;;;13.40;99.90;;;;;;5010538;28;20049;-26
2022/05/10 05:33:14;;;;;;;20.98;10.45;;;13.50;99.90;;;;;;5013747;28;20130;-27
2022/05/10 05:35:40;;;;;;;17.38;10.10;;;13.60;99.90;;;;;;5014136;28;20149;-26
2022/05/10 05:38:06;;;;;;;15.50;9.85;;;13.60;99.90;;;;;;5014597;28;20045;-26
2022/05/10 05:40:34;;;;;;;17.63;9.77;;;13.70;99.90;;;;;;5020364;28;20128;-26
2022/05/10 05:42:59;;;;;;;21.38;11.10;;;13.80;99.90;;;;;;5033877;28;20041;-27
2022/05/10 05:45:26;;;;;;;18.77;10.30;;;13.90;99.90;;;;;;4998494;28;20099;-26
2022/05/10 05:47:52;;;;;;;19.08;10.05;;;13.90;99.90;;;;;;5021989;28;20042;-26
2022/05/10 05:50:21;;;;;;;18.60;10.75;;;14.00;99.90;;;;;;5015443;28;20053;-26
2022/05/10 05:52:48;;;;;;;18.00;10.00;;;14.20;99.90;;;;;;5014413;28;20149;-26
2022/05/10 05:55:14;;;;;;;16.98;10.05;;;14.20;99.90;;;;;;5014574;28;20044;-26
2022/05/10 05:57:40;;;;;;;15.57;9.35;;;14.40;99.90;;;;;;5014027;28;20058;-26
2022/05/10 06:00:09;;;;;;;15.75;9.43;;;14.50;99.90;;;;;;5015141;28;20057;-26
2022/05/10 06:02:36;;;;;;;19.73;9.25;;;14.70;99.90;;;;;;4997394;28;20042;-26
2022/05/10 06:05:02;;;;;;;18.25;9.68;;;14.90;99.90;;;;;;5021350;28;20057;-26
2022/05/10 06:07:28;;;;;;;15.65;8.27;;;15.10;99.90;;;;;;5014767;28;20128;-26
2022/05/10 06:09:54;;;;;;;17.25;9.25;;;15.30;99.90;;;;;;5014707;28;20133;-26
2022/05/10 06:12:20;;;;;;;18.27;8.35;;;15.60;99.90;;;;;;5019132;28;20046;-26
2022/05/10 06:14:47;;;;;;;18.63;9.40;;;15.80;84.30;;;;;;5013805;28;20042;-27
2022/05/10 06:17:13;;;;;;;13.52;8.18;;;16.20;59.30;;;;;;5019552;28;20118;-26
2022/05/10 06:19:41;;;;;;;10.05;7.05;;;16.40;1.00;;;;;;5019666;28;20042;-27
2022/05/10 06:22:08;;;;;;;24.77;7.53;;;16.60;1.00;;;;;;5014998;28;20041;-26
2022/05/10 06:24:34;;;;;;;12.07;7.88;;;16.70;1.00;;;;;;5019555;28;20073;-26
2022/05/10 06:27:02;;;;;;;13.13;7.00;;;16.80;1.00;;;;;;5020325;28;20413;-27
2022/05/10 06:29:27;;;;;;;11.30;7.65;;;17.00;1.00;;;;;;5013297;28;20046;-26
2022/05/10 06:31:53;;;;;;;10.65;6.90;;;17.10;1.00;;;;;;5015375;28;20072;-27
2022/05/10 06:34:19;;;;;;;13.27;7.20;;;17.30;1.00;;;;;;5022287;28;20061;-26
2022/05/10 06:36:45;;;;;;;9.75;6.97;;;17.50;99.90;;;;;;5023200;28;20049;-26
2022/05/10 06:39:11;;;;;;;12.95;7.13;;;17.60;99.90;;;;;;5021292;28;20042;-26
2022/05/10 06:41:37;;;;;;;11.65;6.78;;;17.80;99.90;;;;;;5015127;28;20116;-26
2022/05/10 06:44:04;;;;;;;10.02;7.25;;;17.90;99.90;;;;;;5012220;28;20080;-26
2022/05/10 06:46:32;;;;;;;11.60;6.28;;;17.90;99.90;;;;;;4996585;28;20050;-26
2022/05/10 06:48:59;;;;;;;11.35;6.28;;;18.00;99.90;;;;;;5014405;28;20053;-26
2022/05/10 06:51:25;;;;;;;11.30;6.75;;;18.10;99.90;;;;;;5032351;28;20512;-26
2022/05/10 06:53:53;;;;;;;11.38;6.45;;;18.00;99.90;;;;;;5014874;28;20038;-26
2022/05/10 06:56:19;;;;;;;11.23;5.63;;;18.10;99.90;;;;;;5023152;28;20053;-26
2022/05/10 06:58:46;;;;;;;15.20;5.85;;;18.00;99.90;;;;;;5016309;28;20063;-27
2022/05/10 07:01:12;;;;;;;11.45;5.30;;;18.10;99.90;;;;;;5024220;28;20044;-27
2022/05/10 07:03:41;;;;;;;11.93;5.68;;;18.20;99.90;;;;;;5017408;28;20069;-26
2022/05/10 07:06:09;;;;;;;7.95;4.60;;;18.30;99.90;;;;;;5019279;28;20086;-26
2022/05/10 07:08:35;;;;;;;11.30;4.70;;;18.40;99.90;;;;;;5017036;28;20428;-26
2022/05/10 07:11:01;;;;;;;12.02;5.30;;;18.40;99.90;;;;;;5019332;28;20429;-26
2022/05/10 07:13:30;;;;;;;10.27;4.30;;;18.50;99.90;;;;;;5020889;28;20136;-27
2022/05/10 07:15:56;;;;;;;10.50;4.32;;;18.60;99.90;;;;;;5017745;28;20511;-26
2022/05/10 07:18:22;;;;;;;9.48;4.60;;;18.70;99.90;;;;;;5018824;28;20041;-27
2022/05/10 07:20:49;;;;;;;10.30;4.45;;;18.90;99.90;;;;;;5023153;28;20048;-26
2022/05/10 07:23:20;;;;;;;13.00;5.45;;;19.10;99.90;;;;;;5014393;28;20073;-26
2022/05/10 07:25:45;;;;;;;10.82;5.15;;;19.30;99.90;;;;;;5014612;28;20050;-27
2022/05/10 07:28:11;;;;;;;10.30;5.28;;;19.40;99.90;;;;;;5012241;28;20676;-26
2022/05/10 07:30:38;;;;;;;9.02;4.88;;;19.60;99.90;;;;;;5027466;28;20060;-27
2022/05/10 07:33:04;;;;;;;11.60;4.82;;;19.70;99.90;;;;;;5033391;28;20095;-27
2022/05/10 07:38:17;;;;;;;11.30;5.78;;;19.90;99.90;;;;;;5033642;28;20473;-26
2022/05/10 07:40:46;;;;;;;11.57;5.13;;;20.00;66.80;;;;;;5027075;28;20477;-27
2022/05/10 07:43:14;;;;;;;10.20;5.30;;;20.10;99.90;;;;;;5033190;28;20150;-26
2022/05/10 07:45:47;;;;;;;9.43;5.45;;;20.00;99.90;;;;;;5021853;28;20082;-27
2022/05/10 07:48:13;;;;;;;13.60;5.28;;;20.10;73.70;;;;;;5013566;28;20053;-26
2022/05/10 07:50:39;;;;;;;12.38;5.53;;;19.90;99.90;;;;;;5013514;28;20477;-26
2022/05/10 07:53:08;;;;;;;7.75;4.57;;;19.90;99.90;;;;;;5012311;28;20111;-26
2022/05/10 07:55:35;;;;;;;9.50;4.47;;;19.80;99.90;;;;;;5018685;28;20049;-27
2022/05/10 07:58:01;;;;;;;13.60;5.43;;;19.80;99.90;;;;;;5013777;28;20132;-26
2022/05/10 08:00:27;;;;;;;10.95;5.43;;;19.80;99.90;;;;;;5012727;28;20050;-27
2022/05/10 08:02:53;;;;;;;9.05;4.75;;;19.90;99.90;;;;;;5012725;28;20041;-27
2022/05/10 08:05:21;;;;;;;10.25;5.43;;;20.00;99.90;;;;;;5012534;28;20041;-27
2022/05/10 08:07:47;;;;;;;13.35;5.43;;;20.00;99.90;;;;;;5045229;28;20348;-27
2022/05/10 08:10:19;;;;;;;10.07;4.97;;;20.20;99.90;;;;;;5012332;28;20482;-28
2022/05/10 08:12:46;;;;;;;11.67;5.03;;;20.10;99.90;;;;;;5013546;28;20045;-26
2022/05/10 08:15:12;;;;;;;11.40;4.65;;;20.10;99.90;;;;;;5024020;28;20060;-27
2022/05/10 08:17:39;;;;;;;12.85;4.63;;;20.00;99.90;;;;;;5032880;28;20054;-27
2022/05/10 08:20:05;;;;;;;8.30;3.95;;;20.10;99.90;;;;;;5022780;28;20410;-27
2022/05/10 08:22:32;;;;;;;8.30;4.05;;;20.10;99.90;;;;;;5013957;28;20053;-27
2022/05/10 08:24:58;;;;;;;11.77;4.45;;;20.20;99.90;;;;;;5028025;28;20397;-27
2022/05/10 08:27:23;;;;;;;8.93;4.20;;;20.30;99.90;;;;;;5032928;28;20045;-27
2022/05/10 08:29:49;;;;;;;6.28;3.10;;;20.40;99.90;;;;;;5025997;28;20513;-26
2022/05/10 08:32:15;;;;;;;12.45;3.97;;;20.60;93.60;;;;;;5020265;28;20042;-27
2022/05/10 08:34:41;;;;;;;8.55;4.18;;;20.80;89.20;;;;;;5018036;28;20045;-27
2022/05/10 08:37:08;;;;;;;8.98;4.43;;;20.90;31.80;;;;;;5035311;28;20103;-27
2022/05/10 08:39:34;;;;;;;9.93;4.40;;;21.10;27.50;;;;;;5028237;28;20077;-26
2022/05/10 08:42:13;;;;;;;10.02;4.20;;;21.10;24.40;;;;;;5016409;28;20057;-27
2022/05/10 08:44:40;;;;;;;10.13;3.38;;;21.10;1.00;;;;;;5016640;28;20501;-27
2022/05/10 08:47:07;;;;;;;6.25;3.10;;;20.90;24.10;;;;;;5034427;28;20140;-27
2022/05/10 08:49:57;;;;;;;13.63;4.63;;;20.90;37.20;;;;;;5034300;28;20064;-27
2022/05/10 08:52:30;;;;;;;6.35;3.05;;;20.80;60.20;;;;;;5024579;28;20038;-27
2022/05/10 08:54:56;;;;;;;7.45;3.55;;;20.80;26.30;;;;;;5015859;28;20107;-27
2022/05/10 08:57:43;;;;;;;5.75;3.45;;;20.90;9.00;;;;;;5030145;28;20072;-27
2022/05/10 09:00:34;;;;;;;8.32;3.70;;;21.00;19.30;;;;;;5026021;28;20124;-28
2022/05/10 09:03:12;;;;;;;8.73;3.35;;;21.10;1.00;;;;;;5020779;28;20052;-28
2022/05/10 09:05:43;;;;;;;9.45;3.25;;;21.10;1.00;;;;;;5036155;28;20083;-28
2022/05/10 09:08:24;;;;;;;6.43;2.90;;;21.30;16.10;;;;;;5030633;28;20110;-28
2022/05/10 09:11:02;;;;;;;5.72;2.88;;;21.40;1.00;;;;;;5016870;28;20053;-29
2022/05/10 09:13:28;;;;;;;9.02;2.47;;;21.40;1.00;;;;;;5015176;28;20046;-29
2022/05/10 09:16:03;;;;;;;6.53;2.92;;;21.50;1.00;;;;;;5015885;28;20185;-29
2022/05/10 09:18:36;;;;;;;9.65;2.90;;;21.60;1.00;;;;;;5015734;28;20503;-28
2022/05/10 09:21:24;;;;;;;6.93;2.60;;;21.60;1.00;;;;;;5015782;28;20050;-28
2022/05/10 09:23:58;;;;;;;9.88;2.95;;;21.70;1.00;;;;;;5018106;28;20402;-29
2022/05/10 09:26:44;;;;;;;9.15;2.92;;;21.70;1.00;;;;;;5014924;28;20053;-28
2022/05/10 09:29:22;;;;;;;6.75;2.75;;;22.00;1.00;;;;;;5013796;28;20042;-28
2022/05/10 09:34:47;;;;;;;6.47;2.70;;;22.30;1.00;;;;;;5028770;28;20133;-29
2022/05/10 09:37:33;;;;;;;7.10;2.72;;;22.40;1.00;;;;;;5019547;28;20480;-29
2022/05/10 09:40:01;;;;;;;6.38;3.05;;;22.80;1.00;;;;;;5032840;28;20083;-28
2022/05/10 09:42:31;;;;;;;7.18;2.85;;;23.10;1.00;;;;;;5035209;28;20053;-29
2022/05/10 09:45:02;;;;;;;5.68;2.80;;;23.50;1.00;;;;;;5030669;28;20120;-29
2022/05/10 09:47:28;;;;;;;10.50;2.83;;;23.60;99.90;;;;;;5034712;28;20049;-28
2022/05/10 09:50:08;;;;;;;7.65;4.13;;;23.30;99.90;;;;;;5024663;28;20047;-29
2022/05/10 09:52:35;;;;;;;7.75;3.03;;;23.20;99.90;;;;;;5015759;28;20042;-29
2022/05/10 09:55:07;;;;;;;8.77;3.65;;;22.90;99.90;;;;;;4998199;28;20132;-28
2022/05/10 09:57:39;;;;;;;9.03;3.63;;;22.80;99.90;;;;;;5015141;28;20140;-28
2022/05/10 10:00:08;;;;;;;5.65;3.38;;;22.60;99.90;;;;;;5021336;28;20342;-28
2022/05/10 10:02:37;;;;;;;7.00;3.50;;;22.50;99.90;;;;;;5014922;28;20042;-28
2022/05/10 10:05:25;;;;;;;6.38;4.00;;;22.50;99.90;;;;;;5017536;28;20050;-28
2022/05/10 10:07:54;;;;;;;11.82;3.60;;;22.50;99.90;;;;;;5015176;28;20413;-28
2022/05/10 10:10:33;;;;;;;12.50;3.75;;;22.60;99.90;;;;;;5014835;28;20548;-29
2022/05/10 10:13:10;;;;;;;13.30;4.15;;;22.60;99.90;;;;;;5015307;28;20450;-28
2022/05/10 10:15:43;;;;;;;16.20;4.50;;;22.70;99.90;;;;;;5023484;28;20061;-28
2022/05/10 10:18:11;;;;;;;10.95;4.65;;;22.80;99.90;;;;;;5032307;28;20501;-29
2022/05/10 10:20:54;;;;;;;8.30;4.68;;;22.80;99.90;;;;;;5029820;28;20525;-28
2022/05/10 10:23:32;;;;;;;9.15;4.43;;;23.00;99.90;;;;;;5014725;28;20556;-28
2022/05/10 10:26:01;;;;;;;6.40;3.55;;;23.00;99.90;;;;;;5014883;28;20095;-28
2022/05/10 10:28:34;;;;;;;8.60;4.13;;;22.70;99.90;;;;;;5013495;28;20050;-28
2022/05/10 10:31:06;;;;;;;;;;;22.70;99.90;;;;;;5016125;28;20049;-29
2022/05/10 10:33:36;;;;;;;9.55;4.22;;;22.50;99.90;;;;;;5014757;28;19921;-28
2022/05/10 10:36:13;;;;;;;8.20;4.95;;;22.60;99.90;;;;;;5028027;28;20053;-28
2022/05/10 10:38:56;;;;;;;8.10;4.15;;;22.60;99.90;;;;;;5018889;28;20042;-28
2022/05/10 10:42:08;;;;;;;10.00;5.18;;;22.40;99.90;;;;;;5014279;28;20096;-28
2022/05/10 10:44:43;;;;;;;9.77;4.55;;;22.40;99.90;;;;;;5013971;28;20112;-29
2022/05/10 10:47:24;;;;;;;8.27;4.47;;;22.30;99.90;;;;;;5012346;28;20042;-28
2022/05/10 10:49:57;;;;;;;10.57;3.75;;;22.20;99.90;;;;;;5023479;28;20125;-28
2022/05/10 10:52:23;;;;;;;;;;;22.20;99.90;;;;;;5026365;28;20034;-28
2022/05/10 10:54:49;;;;;;;4.55;3.20;;;22.10;99.90;;;;;;5019492;28;19928;-29
2022/05/10 10:57:25;;;;;;;6.72;3.20;;;22.10;99.90;;;;;;5015676;28;20088;-28
2022/05/10 11:00:00;;;;;;;6.35;2.90;;;22.10;99.90;;;;;;5015454;28;20508;-29
2022/05/10 11:02:54;;;;;;;5.95;2.90;;;21.80;99.90;;;;;;5024148;28;20505;-28
2022/05/10 11:05:57;;;;;;;6.32;2.75;;;21.60;99.90;;;;;;5018830;28;20049;-28
2022/05/10 11:08:26;;;;;;;6.18;3.00;;;21.60;99.90;;;;;;5022431;28;20045;-28
2022/05/10 11:11:16;;;;;;;7.80;3.03;;;21.60;99.90;;;;;;5023882;28;20136;-28
2022/05/10 11:13:50;;;;;;;8.43;3.45;;;21.50;99.90;;;;;;5013103;28;20124;-29
2022/05/10 11:16:49;;;;;;;5.75;3.28;;;21.60;99.90;;;;;;5032133;28;20058;-28
2022/05/10 11:19:15;;;;;;;9.40;3.53;;;21.80;99.90;;;;;;5020235;28;20057;-28
2022/05/10 11:22:07;;;;;;;11.18;4.20;;;22.00;99.90;;;;;;5020674;28;20068;-29
2022/05/10 11:24:53;;;;;;;6.53;4.32;;;22.00;99.90;;;;;;5020676;28;20123;-29
2022/05/10 11:27:47;;;;;;;13.93;4.80;;;21.90;99.90;;;;;;5016230;28;20046;-28
2022/05/10 11:30:30;;;;;;;7.57;4.65;;;21.70;99.90;;;;;;5014896;28;20439;-28
2022/05/10 11:33:17;;;;;;;11.85;5.82;;;21.60;99.90;;;;;;5012490;28;20042;-28
2022/05/10 11:36:02;;;;;;;7.72;4.30;;;21.60;99.90;;;;;;5014720;28;20049;-28
2022/05/10 11:39:00;;;;;;;9.23;4.95;;;21.70;99.90;;;;;;5029610;28;20098;-28
2022/05/10 11:41:36;;;;;;;7.57;5.00;;;21.90;99.90;;;;;;5028750;28;20053;-28
2022/05/10 11:44:23;;;;;;;8.45;5.47;;;21.90;99.90;;;;;;5013151;28;20079;-29
2022/05/10 11:47:27;;;;;;;11.98;6.95;;;22.10;99.90;;;;;;5024145;28;20056;-27
2022/05/10 11:50:15;;;;;;;9.68;6.50;;;22.30;99.90;;;;;;5007211;28;21612;-28
2022/05/10 11:52:43;;;;;;;8.73;6.03;;;22.50;99.90;;;;;;5033288;28;20041;-28
2022/05/10 11:55:36;;;;;;;12.63;7.95;;;22.80;99.90;;;;;;5030535;28;20041;-29
2022/05/10 11:58:08;;;;;;;8.88;5.50;;;23.40;1.00;;;;;;5018069;28;20046;-28
2022/05/10 12:00:34;;;;;;;10.93;6.75;;;23.50;99.90;;;;;;5013650;28;20042;-29
2022/05/10 12:03:01;;;;;;;9.10;6.00;;;23.10;99.90;;;;;;5016628;28;20072;-28
2022/05/10 12:05:29;;;;;;;19.88;6.28;;;22.90;99.90;;;;;;5011345;28;20045;-27
2022/05/10 12:08:02;;;;;;;9.57;4.35;;;22.70;99.90;;;;;;5017570;28;20481;-29
2022/05/10 12:10:41;;;;;;;7.40;4.30;;;22.40;99.90;;;;;;5022676;28;20053;-27
2022/05/10 12:21:19;;;;;;;9.88;4.22;;;22.30;99.90;;;;;;5030485;28;20038;-28
2022/05/10 12:22:46;;;;;;;7.45;3.53;;;22.90;99.90;;;;;;5025613;28;20144;-29
2022/05/10 12:25:44;;;;;;;9.80;3.20;;;22.80;99.90;;;;;;5018928;28;20051;-28
2022/05/10 12:28:29;;;;;;;13.90;4.15;;;22.70;99.90;;;;;;5027600;28;20497;-28
2022/05/10 12:30:56;;;;;;;9.32;3.50;;;22.50;99.90;;;;;;5023117;28;20041;-28
2022/05/10 12:33:59;;;;;;;5.57;3.42;;;22.30;99.90;;;;;;5035721;28;20046;-29
2022/05/10 12:36:37;;;;;;;9.32;4.03;;;22.20;99.90;;;;;;5009843;28;20053;-28
2022/05/10 12:39:22;;;;;;;11.20;3.22;;;22.30;99.90;;;;;;4999730;28;20373;-28
2022/05/10 12:42:00;;;;;;;13.43;3.72;;;22.30;99.90;;;;;;5024369;28;20096;-28
2022/05/10 12:45:03;;;;;;;5.60;2.03;;;22.20;99.90;;;;;;5020582;28;20054;-28
2022/05/10 12:47:46;;;;;;;7.57;2.10;;;21.90;99.90;;;;;;5017620;28;20057;-28
2022/05/10 12:50:29;;;;;;;4.18;1.73;;;21.80;99.90;;;;;;5000686;28;20092;-27
2022/05/10 12:52:55;;;;;;;10.40;1.98;;;21.60;99.90;;;;;;5026900;28;20409;-28
2022/05/10 12:55:25;;;;;;;8.32;2.20;;;21.60;99.90;;;;;;5015974;28;20053;-29
2022/05/10 12:57:54;;;;;;;12.52;2.78;;;21.80;99.90;;;;;;5014807;28;20117;-28
2022/05/10 13:00:40;;;;;;;6.38;1.80;;;21.90;99.90;;;;;;5020095;28;20038;-28
2022/05/10 13:03:27;;;;;;;8.07;1.63;;;21.90;99.90;;;;;;5020587;28;20047;-29
2022/05/10 13:06:15;;;;;;;6.05;2.42;;;21.60;99.90;;;;;;5022500;28;20046;-28
2022/05/10 13:08:56;;;;;;;2.92;0.80;;;21.50;99.90;;;;;;5017893;28;20073;-27
2022/05/10 13:11:25;;;;;;;1.67;0.60;;;21.10;99.90;;;;;;5021670;28;20052;-27
2022/05/10 13:13:54;;;;;;;4.28;1.20;;;20.80;99.90;;;;;;5019220;28;20050;-28
2022/05/10 13:16:20;;;;;;;14.57;1.10;;;20.50;99.90;;;;;;5018151;28;20081;-28
2022/05/10 13:18:48;;;;;;;6.35;1.08;;;20.40;99.90;;;;;;5017225;28;20073;-26
2022/05/10 13:21:27;;;;;;;4.43;0.93;;;20.30;99.90;;;;;;5014703;28;20042;-28
2022/05/10 13:23:55;;;;;;;8.10;0.70;;;20.20;99.90;;;;;;5017933;28;20046;-26
2022/05/10 13:26:22;;;;;;;5.60;0.90;;;20.00;99.90;;;;;;5016934;28;20045;-27